createdAt,value
2022-08-28T00:00:19.277Z,10.30
2022-08-28T00:00:51.718Z,10.05
2022-08-28T00:01:23.935Z,10.50
2022-08-28T00:01:55.936Z,11.48
2022-08-28T00:02:28.469Z,11.27
2022-08-28T00:03:01.146Z,10.55
2022-08-28T00:03:33.124Z,10.75
2022-08-28T00:04:05.236Z,11.48
2022-08-28T00:04:37.592Z,10.48
2022-08-28T00:05:11.677Z,11.50
2022-08-28T00:05:44.811Z,10.60
2022-08-28T00:06:16.752Z,10.20
2022-08-28T00:06:49.002Z,10.48
2022-08-28T00:07:21.152Z,10.98
2022-08-28T00:07:53.358Z,10.35
2022-08-28T00:08:26.114Z,10.35
2022-08-28T00:08:57.859Z,9.68
2022-08-28T00:09:29.865Z,10.75
2022-08-28T00:10:02.069Z,10.55
2022-08-28T00:10:34.289Z,10.68
2022-08-28T00:11:06.262Z,9.95
2022-08-28T00:11:38.591Z,10.80
2022-08-28T00:12:10.742Z,10.27
2022-08-28T00:12:43.712Z,11.20
2022-08-28T00:13:18.627Z,9.68
2022-08-28T00:13:51.484Z,11.57
2022-08-28T00:14:25.978Z,9.60
2022-08-28T00:14:57.880Z,11.18
2022-08-28T00:15:32.891Z,10.32
2022-08-28T00:16:05.541Z,10.40
2022-08-28T00:16:37.579Z,10.93
2022-08-28T00:17:09.414Z,10.88
2022-08-28T00:17:43.325Z,10.55
2022-08-28T00:18:16.316Z,10.52
2022-08-28T00:18:48.372Z,10.85
2022-08-28T00:19:22.820Z,10.63
2022-08-28T00:19:54.649Z,10.98
2022-08-28T00:20:27.543Z,10.25
2022-08-28T00:20:59.918Z,10.45
2022-08-28T00:21:33.417Z,10.93
2022-08-28T00:22:05.593Z,10.50
2022-08-28T00:22:38.866Z,10.50
2022-08-28T00:23:10.864Z,10.00
2022-08-28T00:23:43.558Z,9.52
2022-08-28T00:24:15.549Z,10.25
2022-08-28T00:24:48.172Z,11.25
2022-08-28T00:25:24.112Z,10.23
2022-08-28T00:25:56.186Z,9.52
2022-08-28T00:26:46.767Z,9.93
2022-08-28T00:27:37.170Z,10.35
2022-08-28T00:28:11.057Z,9.48
2022-08-28T00:28:55.299Z,8.80
2022-08-28T00:29:27.556Z,8.88
2022-08-28T00:29:59.461Z,8.82
2022-08-28T00:30:39.092Z,8.85
2022-08-28T00:31:11.970Z,10.13
2022-08-28T00:31:44.575Z,9.07
2022-08-28T00:32:16.609Z,9.93
2022-08-28T00:32:49.213Z,10.43
2022-08-28T00:33:26.178Z,9.50
2022-08-28T00:33:58.228Z,10.02
2022-08-28T00:34:32.944Z,8.98
2022-08-28T00:35:06.795Z,10.40
2022-08-28T00:35:41.031Z,10.65
2022-08-28T00:36:13.162Z,10.23
2022-08-28T00:36:45.089Z,9.15
2022-08-28T00:37:17.040Z,8.80
2022-08-28T00:37:48.933Z,9.18
2022-08-28T00:38:23.018Z,9.25
2022-08-28T00:39:00.085Z,9.88
2022-08-28T00:39:32.319Z,9.07
2022-08-28T00:40:05.055Z,8.93
2022-08-28T00:40:40.174Z,9.02
2022-08-28T00:41:12.222Z,9.05
2022-08-28T00:41:47.532Z,9.60
2022-08-28T00:42:20.521Z,8.90
2022-08-28T00:42:52.322Z,8.95
2022-08-28T00:43:38.501Z,9.05
2022-08-28T00:44:18.383Z,8.93
2022-08-28T00:44:50.287Z,8.63
2022-08-28T00:45:24.132Z,9.13
2022-08-28T00:45:55.896Z,10.13
2022-08-28T00:46:27.810Z,9.68
2022-08-28T00:47:00.733Z,10.00
2022-08-28T00:47:32.652Z,8.95
2022-08-28T00:48:04.685Z,10.02
2022-08-28T00:48:36.931Z,8.73
2022-08-28T00:49:09.147Z,9.07
2022-08-28T00:49:49.401Z,9.20
2022-08-28T00:50:25.537Z,9.75
2022-08-28T00:51:16.164Z,8.77
2022-08-28T00:52:07.380Z,8.68
2022-08-28T00:52:40.216Z,8.32
2022-08-28T00:53:12.215Z,8.55
2022-08-28T00:53:45.072Z,8.68
2022-08-28T00:54:19.402Z,9.40
2022-08-28T00:54:58.592Z,9.05
2022-08-28T00:55:32.120Z,9.40
2022-08-28T00:56:12.312Z,8.95
2022-08-28T00:56:47.574Z,10.43
2022-08-28T00:57:27.146Z,9.27
2022-08-28T00:58:00.595Z,9.55
2022-08-28T00:58:36.156Z,9.90
2022-08-28T00:59:12.481Z,9.50
2022-08-28T00:59:44.501Z,9.98
2022-08-28T01:00:41.110Z,9.60
2022-08-28T01:11:14.691Z,9.13
2022-08-28T01:11:48.512Z,10.05
2022-08-28T01:12:29.042Z,9.18
2022-08-28T01:13:01.638Z,9.13
2022-08-28T01:13:36.022Z,9.10
2022-08-28T01:14:09.187Z,10.13
2022-08-28T01:14:45.839Z,9.35
2022-08-28T01:15:21.758Z,9.90
2022-08-28T01:15:55.341Z,9.23
2022-08-28T01:16:33.020Z,9.05
2022-08-28T01:17:08.566Z,10.18
2022-08-28T01:17:44.305Z,10.23
2022-08-28T01:18:18.554Z,9.48
2022-08-28T01:18:52.719Z,9.90
2022-08-28T01:19:37.337Z,9.25
2022-08-28T01:20:15.260Z,10.52
2022-08-28T01:20:59.172Z,9.90
2022-08-28T01:21:39.149Z,9.25
2022-08-28T01:22:21.885Z,10.73
2022-08-28T01:23:27.427Z,9.05
2022-08-28T01:24:16.108Z,10.02
2022-08-28T01:24:52.590Z,9.80
2022-08-28T01:25:28.000Z,9.05
2022-08-28T01:26:00.610Z,9.57
2022-08-28T01:26:33.566Z,9.75
2022-08-28T01:27:06.648Z,9.20
2022-08-28T01:27:41.935Z,9.55
2022-08-28T01:28:14.754Z,10.27
2022-08-28T01:28:47.619Z,10.43
2022-08-28T01:29:20.859Z,10.43
2022-08-28T01:29:55.414Z,9.82
2022-08-28T01:30:28.934Z,9.73
2022-08-28T01:31:01.013Z,11.68
2022-08-28T01:31:33.212Z,9.07
2022-08-28T01:32:05.678Z,9.07
2022-08-28T01:32:47.552Z,10.50
2022-08-28T01:33:19.736Z,9.77
2022-08-28T01:34:34.391Z,9.63
2022-08-28T01:35:11.540Z,9.70
2022-08-28T01:35:47.580Z,10.98
2022-08-28T01:36:19.885Z,11.38
2022-08-28T01:36:54.545Z,10.45
2022-08-28T01:37:26.935Z,10.52
2022-08-28T01:37:59.918Z,11.20
2022-08-28T01:38:32.081Z,9.90
2022-08-28T01:39:09.420Z,11.07
2022-08-28T01:39:41.489Z,9.40
2022-08-28T01:40:17.819Z,10.48
2022-08-28T01:40:53.671Z,9.75
2022-08-28T01:41:25.808Z,9.85
2022-08-28T01:42:02.537Z,10.77
2022-08-28T01:42:42.760Z,10.82
2022-08-28T01:43:18.733Z,10.18
2022-08-28T01:43:54.374Z,9.80
2022-08-28T01:44:28.193Z,9.80
2022-08-28T01:45:00.160Z,10.95
2022-08-28T01:45:32.444Z,10.48
2022-08-28T01:46:06.236Z,10.60
2022-08-28T01:46:41.380Z,10.65
2022-08-28T01:47:13.595Z,10.38
2022-08-28T01:47:46.552Z,10.43
2022-08-28T01:48:19.922Z,10.32
2022-08-28T01:48:56.979Z,10.60
2022-08-28T01:49:29.533Z,9.93
2022-08-28T01:50:01.688Z,10.23
2022-08-28T01:50:36.706Z,9.88
2022-08-28T01:51:12.333Z,9.57
2022-08-28T01:51:44.369Z,11.88
2022-08-28T01:52:16.591Z,10.50
2022-08-28T01:52:48.756Z,10.45
2022-08-28T01:53:26.025Z,9.77
2022-08-28T01:54:20.012Z,10.85
2022-08-28T01:54:52.552Z,11.38
2022-08-28T01:55:24.583Z,11.15
2022-08-28T01:55:59.668Z,11.98
2022-08-28T01:56:31.864Z,11.30
2022-08-28T01:57:03.878Z,10.68
2022-08-28T01:57:43.019Z,10.82
2022-08-28T01:58:16.046Z,12.63
2022-08-28T01:58:50.752Z,12.13
2022-08-28T01:59:22.788Z,10.40
2022-08-28T01:59:54.697Z,11.73
2022-08-28T02:00:28.720Z,11.85
2022-08-28T02:01:00.677Z,11.27
2022-08-28T02:01:33.396Z,11.15
2022-08-28T02:02:05.422Z,10.98
2022-08-28T02:02:37.364Z,10.20
2022-08-28T02:03:09.761Z,12.05
2022-08-28T02:03:45.592Z,12.10
2022-08-28T02:04:17.519Z,12.07
2022-08-28T02:04:49.615Z,11.45
2022-08-28T02:05:23.051Z,11.60
2022-08-28T02:05:54.870Z,11.52
2022-08-28T02:06:26.987Z,12.15
2022-08-28T02:06:59.187Z,12.38
2022-08-28T02:07:31.032Z,11.77
2022-08-28T02:08:04.957Z,12.98
2022-08-28T02:08:36.971Z,12.25
2022-08-28T02:09:14.333Z,11.63
2022-08-28T02:09:46.721Z,12.60
2022-08-28T02:10:19.813Z,11.50
2022-08-28T02:10:52.604Z,12.00
2022-08-28T02:11:26.001Z,12.10
2022-08-28T02:11:57.896Z,11.27
2022-08-28T02:12:30.047Z,11.15
2022-08-28T02:13:02.643Z,11.90
2022-08-28T02:13:39.683Z,11.85
2022-08-28T02:14:11.438Z,11.38
2022-08-28T02:14:43.167Z,11.68
2022-08-28T02:15:14.917Z,12.88
2022-08-28T02:15:46.743Z,12.55
2022-08-28T02:16:19.507Z,12.13
2022-08-28T02:16:51.318Z,11.95
2022-08-28T02:17:23.044Z,12.82
2022-08-28T02:17:56.001Z,12.50
2022-08-28T02:18:27.880Z,13.20
2022-08-28T02:19:00.627Z,11.98
2022-08-28T02:19:32.563Z,12.32
2022-08-28T02:20:06.101Z,11.68
2022-08-28T02:20:38.185Z,13.07
2022-08-28T02:21:11.103Z,12.32
2022-08-28T02:21:42.888Z,11.65
2022-08-28T02:22:14.632Z,11.88
2022-08-28T02:22:46.476Z,11.90
2022-08-28T02:23:18.257Z,12.77
2022-08-28T02:23:50.010Z,11.38
2022-08-28T02:24:22.215Z,12.27
2022-08-28T02:24:54.078Z,13.07
2022-08-28T02:25:27.432Z,11.80
2022-08-28T02:25:59.736Z,13.07
2022-08-28T02:26:31.855Z,12.98
2022-08-28T02:27:03.869Z,12.43
2022-08-28T02:27:36.310Z,13.02
2022-08-28T02:28:09.072Z,13.68
2022-08-28T02:28:42.318Z,13.25
2022-08-28T02:29:14.206Z,13.00
2022-08-28T02:29:46.019Z,12.00
2022-08-28T02:30:18.500Z,12.88
2022-08-28T02:30:50.326Z,12.10
2022-08-28T02:31:22.203Z,12.85
2022-08-28T02:31:54.049Z,12.43
2022-08-28T02:32:26.507Z,13.30
2022-08-28T02:32:58.296Z,13.05
2022-08-28T02:33:30.063Z,13.52
2022-08-28T02:34:02.076Z,13.73
2022-08-28T02:34:35.153Z,13.35
2022-08-28T02:35:12.129Z,13.20
2022-08-28T02:35:44.038Z,12.50
2022-08-28T02:36:16.328Z,12.63
2022-08-28T02:36:48.071Z,12.55
2022-08-28T02:37:20.588Z,12.32
2022-08-28T02:37:52.480Z,13.10
2022-08-28T02:38:27.264Z,13.55
2022-08-28T02:38:59.226Z,12.52
2022-08-28T02:39:31.464Z,13.77
2022-08-28T02:40:04.696Z,12.70
2022-08-28T02:40:37.289Z,13.82
2022-08-28T02:41:09.835Z,13.00
2022-08-28T02:41:41.711Z,14.15
2022-08-28T02:42:13.441Z,12.90
2022-08-28T02:42:46.823Z,13.55
2022-08-28T02:43:18.651Z,13.65
2022-08-28T02:43:50.563Z,13.18
2022-08-28T02:44:22.288Z,12.63
2022-08-28T02:44:54.033Z,13.85
2022-08-28T02:45:25.877Z,13.48
2022-08-28T02:45:58.730Z,13.60
2022-08-28T02:46:31.073Z,13.57
2022-08-28T02:47:03.618Z,13.18
2022-08-28T02:47:35.914Z,14.10
2022-08-28T02:48:15.728Z,13.52
2022-08-28T02:48:50.299Z,12.32
2022-08-28T02:49:23.977Z,13.45
2022-08-28T02:49:55.693Z,13.25
2022-08-28T02:50:28.202Z,13.88
2022-08-28T02:51:06.209Z,12.63
2022-08-28T02:51:37.940Z,13.75
2022-08-28T02:52:10.627Z,13.52
2022-08-28T02:52:44.216Z,13.15
2022-08-28T02:53:15.976Z,13.90
2022-08-28T02:53:48.215Z,14.23
2022-08-28T02:54:19.963Z,13.57
2022-08-28T02:54:51.741Z,12.77
2022-08-28T02:55:24.764Z,12.93
2022-08-28T02:55:57.550Z,13.50
2022-08-28T02:56:29.341Z,13.77
2022-08-28T02:57:01.100Z,13.73
2022-08-28T02:57:32.972Z,13.38
2022-08-28T02:58:06.644Z,13.60
2022-08-28T02:58:39.374Z,13.25
2022-08-28T02:59:11.578Z,13.43
2022-08-28T02:59:44.031Z,14.55
2022-08-28T03:00:19.923Z,13.52
2022-08-28T03:00:51.652Z,13.50
2022-08-28T03:01:23.770Z,14.27
2022-08-28T03:01:55.828Z,13.75
2022-08-28T03:02:27.717Z,14.25
2022-08-28T03:02:59.555Z,14.02
2022-08-28T03:03:32.550Z,14.73
2022-08-28T03:04:05.782Z,14.07
2022-08-28T03:04:38.013Z,14.55
2022-08-28T03:05:10.307Z,13.60
2022-08-28T03:05:42.027Z,13.50
2022-08-28T03:06:13.994Z,14.35
2022-08-28T03:06:45.736Z,13.40
2022-08-28T03:07:17.831Z,14.50
2022-08-28T03:07:50.892Z,13.18
2022-08-28T03:08:23.373Z,14.52
2022-08-28T03:09:00.047Z,14.00
2022-08-28T03:09:31.900Z,13.27
2022-08-28T03:10:07.130Z,14.57
2022-08-28T03:10:38.986Z,14.73
2022-08-28T03:11:12.067Z,14.85
2022-08-28T03:11:43.818Z,15.05
2022-08-28T03:12:17.045Z,13.77
2022-08-28T03:12:49.324Z,14.52
2022-08-28T03:13:26.535Z,14.68
2022-08-28T03:13:59.403Z,14.55
2022-08-28T03:14:31.198Z,14.35
2022-08-28T03:15:03.695Z,14.80
2022-08-28T03:15:35.648Z,14.45
2022-08-28T03:16:07.472Z,15.23
2022-08-28T03:16:39.346Z,14.35
2022-08-28T03:17:11.130Z,14.90
2022-08-28T03:17:42.903Z,13.45
2022-08-28T03:18:15.951Z,14.63
2022-08-28T03:18:48.117Z,13.98
2022-08-28T03:19:20.282Z,14.63
2022-08-28T03:19:52.469Z,14.10
2022-08-28T03:20:24.239Z,14.50
2022-08-28T03:20:56.562Z,15.40
2022-08-28T03:21:28.337Z,14.50
2022-08-28T03:22:00.118Z,14.70
2022-08-28T03:23:00.873Z,14.63
2022-08-28T03:23:33.269Z,14.10
2022-08-28T03:24:05.344Z,14.40
2022-08-28T03:24:37.742Z,14.90
2022-08-28T03:25:10.604Z,14.52
2022-08-28T03:25:42.687Z,15.38
2022-08-28T03:26:17.406Z,15.52
2022-08-28T03:26:49.260Z,14.32
2022-08-28T03:27:21.013Z,14.77
2022-08-28T03:27:53.012Z,15.02
2022-08-28T03:28:31.195Z,14.27
2022-08-28T03:29:03.135Z,14.43
2022-08-28T03:29:35.696Z,13.90
2022-08-28T03:30:08.062Z,14.93
2022-08-28T03:30:39.958Z,14.82
2022-08-28T03:31:18.201Z,14.55
2022-08-28T03:31:50.021Z,14.73
2022-08-28T03:32:22.277Z,14.25
2022-08-28T03:32:54.062Z,14.65
2022-08-28T03:33:26.823Z,15.20
2022-08-28T03:33:58.749Z,14.20
2022-08-28T03:34:30.486Z,13.98
2022-08-28T03:35:03.488Z,14.18
2022-08-28T03:35:35.285Z,15.40
2022-08-28T03:36:07.591Z,15.55
2022-08-28T03:36:39.361Z,14.85
2022-08-28T03:37:11.090Z,14.18
2022-08-28T03:37:43.470Z,14.85
2022-08-28T03:38:16.909Z,15.10
2022-08-28T03:38:49.835Z,15.90
2022-08-28T03:39:21.733Z,14.80
2022-08-28T03:39:54.068Z,14.73
2022-08-28T03:40:26.342Z,14.55
2022-08-28T03:40:58.118Z,14.80
2022-08-28T03:41:31.324Z,15.50
2022-08-28T03:42:03.587Z,15.55
2022-08-28T03:42:35.587Z,15.68
2022-08-28T03:43:07.333Z,14.57
2022-08-28T03:43:40.078Z,14.48
2022-08-28T03:44:12.011Z,14.75
2022-08-28T03:44:43.813Z,14.50
2022-08-28T03:45:15.755Z,13.93
2022-08-28T03:46:02.766Z,14.48
2022-08-28T03:46:34.792Z,14.05
2022-08-28T03:47:06.813Z,14.23
2022-08-28T03:47:41.723Z,13.88
2022-08-28T03:48:14.862Z,13.82
2022-08-28T03:48:47.001Z,14.63
2022-08-28T03:49:19.819Z,14.85
2022-08-28T03:49:56.797Z,13.32
2022-08-28T03:50:28.667Z,14.63
2022-08-28T03:51:01.609Z,14.43
2022-08-28T03:51:34.314Z,13.57
2022-08-28T03:52:06.145Z,14.50
2022-08-28T03:52:39.247Z,14.57
2022-08-28T03:53:11.012Z,13.18
2022-08-28T03:53:43.746Z,14.40
2022-08-28T03:54:15.503Z,14.15
2022-08-28T03:54:48.068Z,13.70
2022-08-28T03:55:20.152Z,13.95
2022-08-28T03:55:52.751Z,14.18
2022-08-28T03:56:26.512Z,13.30
2022-08-28T03:56:58.733Z,13.48
2022-08-28T03:57:30.467Z,13.05
2022-08-28T03:58:02.318Z,14.25
2022-08-28T03:58:34.307Z,14.85
2022-08-28T03:59:06.071Z,13.57
2022-08-28T03:59:37.855Z,14.73
2022-08-28T04:00:13.236Z,13.63
2022-08-28T04:00:45.958Z,13.95
2022-08-28T04:01:19.465Z,13.90
2022-08-28T04:01:52.249Z,12.85
2022-08-28T04:02:24.098Z,13.40
2022-08-28T04:02:55.873Z,13.50
2022-08-28T04:03:28.192Z,15.32
2022-08-28T04:04:00.398Z,14.38
2022-08-28T04:04:32.167Z,13.80
2022-08-28T04:05:05.551Z,14.57
2022-08-28T04:05:37.588Z,14.25
2022-08-28T04:06:09.362Z,13.95
2022-08-28T04:06:41.848Z,14.60
2022-08-28T04:07:13.676Z,13.35
2022-08-28T04:07:45.922Z,12.50
2022-08-28T04:08:19.433Z,13.65
2022-08-28T04:08:51.465Z,14.00
2022-08-28T04:09:23.416Z,14.30
2022-08-28T04:09:55.192Z,14.38
2022-08-28T04:10:26.935Z,13.85
2022-08-28T04:11:00.745Z,14.55
2022-08-28T04:11:43.304Z,14.55
2022-08-28T04:12:15.996Z,13.85
2022-08-28T04:12:47.995Z,14.23
2022-08-28T04:13:21.670Z,15.50
2022-08-28T04:13:53.415Z,14.68
2022-08-28T04:14:25.182Z,13.88
2022-08-28T04:14:57.556Z,14.40
2022-08-28T04:15:29.579Z,14.15
2022-08-28T04:16:06.519Z,14.55
2022-08-28T04:16:38.567Z,13.85
2022-08-28T04:17:11.214Z,14.38
2022-08-28T04:17:43.312Z,13.75
2022-08-28T04:18:15.792Z,13.18
2022-08-28T04:18:49.388Z,14.45
2022-08-28T04:19:21.601Z,14.02
2022-08-28T04:19:54.178Z,13.02
2022-08-28T04:20:27.102Z,13.07
2022-08-28T04:21:05.666Z,13.73
2022-08-28T04:21:37.483Z,13.52
2022-08-28T04:22:09.337Z,13.23
2022-08-28T04:22:41.159Z,11.98
2022-08-28T04:23:13.212Z,13.25
2022-08-28T04:23:46.179Z,12.65
2022-08-28T04:24:17.960Z,12.30
2022-08-28T04:24:49.722Z,13.73
2022-08-28T04:25:22.162Z,12.50
2022-08-28T04:25:54.014Z,12.95
2022-08-28T04:26:27.869Z,13.05
2022-08-28T04:26:59.752Z,13.50
2022-08-28T04:27:31.854Z,13.20
2022-08-28T04:28:04.436Z,11.90
2022-08-28T04:28:36.505Z,12.50
2022-08-28T04:29:08.330Z,11.18
2022-08-28T04:29:40.138Z,12.50
2022-08-28T04:30:12.169Z,11.88
2022-08-28T04:30:43.956Z,12.30
2022-08-28T04:31:16.285Z,11.95
2022-08-28T04:31:48.186Z,11.40
2022-08-28T04:32:20.016Z,11.02
2022-08-28T04:32:51.783Z,11.38
2022-08-28T04:33:25.146Z,11.85
2022-08-28T04:33:58.487Z,12.48
2022-08-28T04:34:30.252Z,10.90
2022-08-28T04:35:03.329Z,10.73
2022-08-28T04:35:35.105Z,10.75
2022-08-28T04:36:11.086Z,11.30
2022-08-28T04:36:43.572Z,11.45
2022-08-28T04:37:16.600Z,12.00
2022-08-28T04:37:48.366Z,10.52
2022-08-28T04:38:21.036Z,11.98
2022-08-28T04:38:52.769Z,12.07
2022-08-28T04:39:24.584Z,11.18
2022-08-28T04:39:56.451Z,11.40
2022-08-28T04:40:28.788Z,10.73
2022-08-28T04:41:04.655Z,11.23
2022-08-28T04:41:37.521Z,11.73
2022-08-28T04:42:09.825Z,10.85
2022-08-28T04:42:42.476Z,11.10
2022-08-28T04:43:14.295Z,12.02
2022-08-28T04:43:46.118Z,11.65
2022-08-28T04:44:17.923Z,10.60
2022-08-28T04:44:49.699Z,11.20
2022-08-28T04:45:22.052Z,11.80
2022-08-28T04:45:53.882Z,12.43
2022-08-28T04:46:25.931Z,11.75
2022-08-28T04:46:57.923Z,11.07
2022-08-28T04:47:31.026Z,10.80
2022-08-28T04:48:03.372Z,12.43
2022-08-28T04:48:38.211Z,11.23
2022-08-28T04:49:10.260Z,10.52
2022-08-28T04:49:42.119Z,11.77
2022-08-28T04:50:13.914Z,12.07
2022-08-28T04:50:48.787Z,11.55
2022-08-28T04:51:20.582Z,11.98
2022-08-28T04:51:52.388Z,11.27
2022-08-28T04:52:24.202Z,12.32
2022-08-28T04:52:56.034Z,11.80
2022-08-28T04:53:28.324Z,11.68
2022-08-28T04:54:01.953Z,11.70
2022-08-28T04:54:34.932Z,11.38
2022-08-28T04:55:07.375Z,11.48
2022-08-28T04:55:54.700Z,12.05
2022-08-28T04:56:27.325Z,10.98
2022-08-28T04:56:59.209Z,11.48
2022-08-28T04:57:34.519Z,11.57
2022-08-28T04:58:08.846Z,11.60
2022-08-28T04:58:42.827Z,10.57
2022-08-28T04:59:14.693Z,10.95
2022-08-28T04:59:46.568Z,10.43
2022-08-28T05:00:18.883Z,11.75
2022-08-28T05:00:51.852Z,11.30
2022-08-28T05:01:24.848Z,12.45
2022-08-28T05:01:56.735Z,11.77
2022-08-28T05:02:28.550Z,10.82
2022-08-28T05:03:01.131Z,11.30
2022-08-28T05:03:33.077Z,11.30
2022-08-28T05:04:05.061Z,11.10
2022-08-28T05:04:36.956Z,11.73
2022-08-28T05:05:09.370Z,11.52
2022-08-28T05:05:46.654Z,11.30
2022-08-28T05:06:18.447Z,11.00
2022-08-28T05:06:50.293Z,11.10
2022-08-28T05:07:22.030Z,11.98
2022-08-28T05:07:53.754Z,12.27
2022-08-28T05:08:27.830Z,11.95
2022-08-28T05:09:02.093Z,11.35
2022-08-28T05:09:34.955Z,11.40
2022-08-28T05:10:07.540Z,11.10
2022-08-28T05:10:40.280Z,11.00
2022-08-28T05:11:21.277Z,11.93
2022-08-28T05:12:05.836Z,11.35
2022-08-28T05:12:37.673Z,11.18
2022-08-28T05:13:11.271Z,11.20
2022-08-28T05:13:43.479Z,11.50
2022-08-28T05:14:16.506Z,11.50
2022-08-28T05:14:49.526Z,10.88
2022-08-28T05:15:21.487Z,11.63
2022-08-28T05:15:53.281Z,10.95
2022-08-28T05:16:25.153Z,11.30
2022-08-28T05:16:57.720Z,12.25
2022-08-28T05:17:32.175Z,11.70
2022-08-28T05:18:04.149Z,11.27
2022-08-28T05:18:36.150Z,10.93
2022-08-28T05:19:07.942Z,10.82
2022-08-28T05:19:40.072Z,11.80
2022-08-28T05:20:11.902Z,11.23
2022-08-28T05:20:46.299Z,11.13
2022-08-28T05:21:21.823Z,11.32
2022-08-28T05:21:54.705Z,11.25
2022-08-28T05:22:28.849Z,10.18
2022-08-28T05:23:00.618Z,11.55
2022-08-28T05:23:32.438Z,11.32
2022-08-28T05:24:04.895Z,11.15
2022-08-28T05:24:38.022Z,11.43
2022-08-28T05:25:10.133Z,11.45
2022-08-28T05:25:44.647Z,12.23
2022-08-28T05:26:18.363Z,11.43
2022-08-28T05:26:50.194Z,11.00
2022-08-28T05:27:24.367Z,10.80
2022-08-28T05:27:56.325Z,11.18
2022-08-28T05:28:28.187Z,10.95
2022-08-28T05:29:00.295Z,11.30
2022-08-28T05:29:32.274Z,11.88
2022-08-28T05:30:05.641Z,10.77
2022-08-28T05:30:39.455Z,11.68
2022-08-28T05:31:13.719Z,11.95
2022-08-28T05:31:46.223Z,11.95
2022-08-28T05:32:18.495Z,11.05
2022-08-28T05:32:50.397Z,12.00
2022-08-28T05:33:22.409Z,12.25
2022-08-28T05:33:54.765Z,12.50
2022-08-28T05:34:26.514Z,11.95
2022-08-28T05:34:58.494Z,11.45
2022-08-28T05:35:33.983Z,11.68
2022-08-28T05:36:07.403Z,11.15
2022-08-28T05:36:39.827Z,11.90
2022-08-28T05:37:14.540Z,11.90
2022-08-28T05:37:50.293Z,11.60
2022-08-28T05:38:22.133Z,12.35
2022-08-28T05:38:57.607Z,11.90
2022-08-28T05:39:29.401Z,11.63
2022-08-28T05:40:01.208Z,12.45
2022-08-28T05:40:33.841Z,12.02
2022-08-28T05:41:06.847Z,12.00
2022-08-28T05:41:41.040Z,11.45
2022-08-28T05:42:13.107Z,12.15
2022-08-28T05:42:44.863Z,12.55
2022-08-28T05:43:17.471Z,11.40
2022-08-28T05:43:50.166Z,11.70
2022-08-28T05:44:21.989Z,11.02
2022-08-28T05:44:54.622Z,11.38
2022-08-28T05:45:26.551Z,11.73
2022-08-28T05:46:02.414Z,10.90
2022-08-28T05:46:39.862Z,12.63
2022-08-28T05:47:12.399Z,12.70
2022-08-28T05:47:44.822Z,11.10
2022-08-28T05:48:16.583Z,11.65
2022-08-28T05:48:49.340Z,11.88
2022-08-28T05:49:21.226Z,12.15
2022-08-28T05:49:53.048Z,11.98
2022-08-28T05:50:24.886Z,12.05
2022-08-28T05:50:58.332Z,12.27
2022-08-28T05:51:31.183Z,12.32
2022-08-28T05:52:03.160Z,11.88
2022-08-28T05:52:35.900Z,11.77
2022-08-28T05:53:07.660Z,12.20
2022-08-28T05:53:42.003Z,11.75
2022-08-28T05:54:15.636Z,12.10
2022-08-28T05:54:48.555Z,12.13
2022-08-28T05:55:20.313Z,11.82
2022-08-28T05:55:52.543Z,11.50
2022-08-28T05:56:29.472Z,11.80
2022-08-28T05:57:01.240Z,11.52
2022-08-28T05:57:35.699Z,11.85
2022-08-28T05:58:26.217Z,11.60
2022-08-28T05:59:00.205Z,11.90
2022-08-28T05:59:32.132Z,12.65
2022-08-28T06:00:05.579Z,12.05
2022-08-28T06:00:37.347Z,12.95
2022-08-28T06:01:23.539Z,13.10
2022-08-28T06:01:55.518Z,11.13
2022-08-28T06:02:27.340Z,11.48
2022-08-28T06:02:59.367Z,12.07
2022-08-28T06:03:31.267Z,11.75
2022-08-28T06:04:09.671Z,11.23
2022-08-28T06:04:41.659Z,11.23
2022-08-28T06:05:14.677Z,10.13
2022-08-28T06:05:46.569Z,11.10
2022-08-28T06:06:18.349Z,12.77
2022-08-28T06:06:50.386Z,12.02
2022-08-28T06:07:22.183Z,11.40
2022-08-28T06:07:53.914Z,12.00
2022-08-28T06:08:26.923Z,12.02
2022-08-28T06:09:05.113Z,11.43
2022-08-28T06:09:38.308Z,11.30
2022-08-28T06:10:10.607Z,10.75
2022-08-28T06:10:44.752Z,11.52
2022-08-28T06:11:21.202Z,11.27
2022-08-28T06:11:59.003Z,11.48
2022-08-28T06:12:31.243Z,12.32
2022-08-28T06:13:04.165Z,11.38
2022-08-28T06:13:36.453Z,11.38
2022-08-28T06:14:10.922Z,11.98
2022-08-28T06:14:42.835Z,10.85
2022-08-28T06:15:16.629Z,11.77
2022-08-28T06:15:48.447Z,12.02
2022-08-28T06:16:20.635Z,12.13
2022-08-28T06:16:54.837Z,11.27
2022-08-28T06:17:26.595Z,11.55
2022-08-28T06:17:58.330Z,12.05
2022-08-28T06:18:30.271Z,12.07
2022-08-28T06:19:02.062Z,11.25
2022-08-28T06:19:40.564Z,12.13
2022-08-28T06:20:13.690Z,12.25
2022-08-28T06:20:46.811Z,12.80
2022-08-28T06:21:18.583Z,11.68
2022-08-28T06:21:55.017Z,12.38
2022-08-28T06:22:26.756Z,12.65
2022-08-28T06:22:58.845Z,12.05
2022-08-28T06:23:31.013Z,12.80
2022-08-28T06:24:03.447Z,12.55
2022-08-28T06:24:35.807Z,11.55
2022-08-28T06:25:09.300Z,12.18
2022-08-28T06:25:45.864Z,11.82
2022-08-28T06:26:17.923Z,11.90
2022-08-28T06:26:49.749Z,11.60
2022-08-28T06:27:21.947Z,11.75
2022-08-28T06:27:53.744Z,10.45
2022-08-28T06:28:27.568Z,11.25
2022-08-28T06:29:01.348Z,11.98
2022-08-28T06:29:33.463Z,11.70
2022-08-28T06:30:06.469Z,11.82
2022-08-28T06:30:40.153Z,10.50
2022-08-28T06:31:23.487Z,12.10
2022-08-28T06:32:00.057Z,11.60
2022-08-28T06:32:31.909Z,10.80
2022-08-28T06:33:05.844Z,12.43
2022-08-28T06:33:37.838Z,11.20
2022-08-28T06:34:09.837Z,12.00
2022-08-28T06:34:41.739Z,12.43
2022-08-28T06:35:13.566Z,11.07
2022-08-28T06:35:49.274Z,12.70
2022-08-28T06:36:21.947Z,11.75
2022-08-28T06:36:54.781Z,10.57
2022-08-28T06:37:26.570Z,11.07
2022-08-28T06:37:58.986Z,12.55
2022-08-28T06:38:31.019Z,11.27
2022-08-28T06:39:04.888Z,12.32
2022-08-28T06:39:36.777Z,11.02
2022-08-28T06:40:09.208Z,11.65
2022-08-28T06:40:43.198Z,11.02
2022-08-28T06:41:15.639Z,11.25
2022-08-28T06:41:47.635Z,11.43
2022-08-28T06:42:21.490Z,11.23
2022-08-28T06:42:53.304Z,11.43
2022-08-28T06:43:28.131Z,10.85
2022-08-28T06:44:00.478Z,12.18
2022-08-28T06:44:32.626Z,10.65
2022-08-28T06:45:04.713Z,12.00
2022-08-28T06:45:42.200Z,11.18
2022-08-28T06:46:14.239Z,11.10
2022-08-28T06:46:51.894Z,11.23
2022-08-28T06:47:23.802Z,10.80
2022-08-28T06:47:55.543Z,10.82
2022-08-28T06:48:28.618Z,11.55
2022-08-28T06:49:03.333Z,10.75
2022-08-28T06:49:35.633Z,11.52
2022-08-28T06:50:07.991Z,10.88
2022-08-28T06:50:41.888Z,11.02
2022-08-28T06:51:14.549Z,11.70
2022-08-28T06:51:46.410Z,11.80
2022-08-28T06:52:18.991Z,12.07
2022-08-28T06:52:50.779Z,11.18
2022-08-28T06:53:28.771Z,12.05
2022-08-28T06:54:00.991Z,11.52
2022-08-28T06:54:32.776Z,10.98
2022-08-28T06:55:04.895Z,11.52
2022-08-28T06:55:37.900Z,12.25
2022-08-28T06:56:26.086Z,12.07
2022-08-28T06:56:58.828Z,11.02
2022-08-28T06:57:31.661Z,11.10
2022-08-28T06:58:05.745Z,12.20
2022-08-28T06:58:50.297Z,11.73
2022-08-28T06:59:23.556Z,12.05
2022-08-28T06:59:56.831Z,12.15
2022-08-28T07:00:29.260Z,12.13
2022-08-28T07:01:13.991Z,11.82
2022-08-28T07:01:46.270Z,11.75
2022-08-28T07:02:18.764Z,12.18
2022-08-28T07:02:51.000Z,12.07
2022-08-28T07:03:22.771Z,12.73
2022-08-28T07:03:57.309Z,11.73
2022-08-28T07:04:29.169Z,10.95
2022-08-28T07:05:01.230Z,12.13
2022-08-28T07:05:33.951Z,11.77
2022-08-28T07:06:08.812Z,13.43
2022-08-28T07:06:46.894Z,13.43
2022-08-28T07:07:31.489Z,12.30
2022-08-28T07:08:04.341Z,13.02
2022-08-28T07:08:37.430Z,12.73
2022-08-28T07:09:13.586Z,12.93
2022-08-28T07:09:46.294Z,14.50
2022-08-28T07:10:18.613Z,13.27
2022-08-28T07:10:50.378Z,13.65
2022-08-28T07:11:57.847Z,13.35
2022-08-28T07:12:29.592Z,11.65
2022-08-28T07:13:03.040Z,12.82
2022-08-28T07:13:36.520Z,13.40
2022-08-28T07:14:08.323Z,13.75
2022-08-28T07:14:40.158Z,13.38
2022-08-28T07:15:11.971Z,14.18
2022-08-28T07:15:43.717Z,13.82
2022-08-28T07:16:17.719Z,12.88
2022-08-28T07:16:49.971Z,12.40
2022-08-28T07:17:23.464Z,13.88
2022-08-28T07:17:55.232Z,13.70
2022-08-28T07:18:27.037Z,14.88
2022-08-28T07:18:59.084Z,14.13
2022-08-28T07:19:30.826Z,13.68
2022-08-28T07:20:07.289Z,13.43
2022-08-28T07:20:39.343Z,14.13
2022-08-28T07:21:12.549Z,13.63
2022-08-28T07:21:45.942Z,13.18
2022-08-28T07:22:17.777Z,12.98
2022-08-28T07:22:54.133Z,13.88
2022-08-28T07:23:33.354Z,13.77
2022-08-28T07:24:06.417Z,13.90
2022-08-28T07:24:38.169Z,13.88